sensor_id;sensor_type;location;lat;lon;timestamp;temperature;humidity
10722;DHT22;5412;59.450;18.124;2023-01-28T00:00:07;-0.10;99.90
10722;DHT22;5412;59.450;18.124;2023-01-28T00:02:34;0.00;99.90
10722;DHT22;5412;59.450;18.124;2023-01-28T00:04:59;-0.10;99.90
10722;DHT22;5412;59.450;18.124;2023-01-28T00:07:25;-0.10;99.90
10722;DHT22;5412;59.450;18.124;2023-01-28T00:09:52;-0.10;99.90
10722;DHT22;5412;59.450;18.124;2023-01-28T00:12:18;-0.10;99.90
10722;DHT22;5412;59.450;18.124;2023-01-28T00:14:43;-0.20;99.90
10722;DHT22;5412;59.450;18.124;2023-01-28T00:17:11;-0.20;99.90
10722;DHT22;5412;59.450;18.124;2023-01-28T00:19:36;-0.20;99.90
10722;DHT22;5412;59.450;18.124;2023-01-28T00:22:03;-0.20;99.90
10722;DHT22;5412;59.450;18.124;2023-01-28T00:24:29;-0.10;99.90
10722;DHT22;5412;59.450;18.124;2023-01-28T00:26:55;-0.10;99.90
10722;DHT22;5412;59.450;18.124;2023-01-28T00:29:21;0.00;99.90
10722;DHT22;5412;59.450;18.124;2023-01-28T00:31:47;-0.10;99.90
10722;DHT22;5412;59.450;18.124;2023-01-28T00:34:12;-0.10;99.90
10722;DHT22;5412;59.450;18.124;2023-01-28T00:36:38;-0.10;99.90
10722;DHT22;5412;59.450;18.124;2023-01-28T00:39:05;-0.20;99.90
10722;DHT22;5412;59.450;18.124;2023-01-28T00:41:31;-0.30;99.90
10722;DHT22;5412;59.450;18.124;2023-01-28T00:43:57;-0.20;99.90
10722;DHT22;5412;59.450;18.124;2023-01-28T00:46:23;-0.10;99.90
10722;DHT22;5412;59.450;18.124;2023-01-28T00:48:51;-0.10;99.90
10722;DHT22;5412;59.450;18.124;2023-01-28T00:51:17;-0.10;99.90
10722;DHT22;5412;59.450;18.124;2023-01-28T00:53:44;0.00;99.90
10722;DHT22;5412;59.450;18.124;2023-01-28T00:56:13;0.00;99.90
10722;DHT22;5412;59.450;18.124;2023-01-28T00:58:39;0.00;99.90
10722;DHT22;5412;59.450;18.124;2023-01-28T01:01:17;0.00;99.90
10722;DHT22;5412;59.450;18.124;2023-01-28T01:03:43;0.00;99.90
10722;DHT22;5412;59.450;18.124;2023-01-28T01:06:10;0.00;99.90
10722;DHT22;5412;59.450;18.124;2023-01-28T01:08:36;-0.10;99.90
10722;DHT22;5412;59.450;18.124;2023-01-28T01:11:06;0.00;99.90
10722;DHT22;5412;59.450;18.124;2023-01-28T01:13:32;0.10;99.90
10722;DHT22;5412;59.450;18.124;2023-01-28T01:16:06;-0.10;99.90
10722;DHT22;5412;59.450;18.124;2023-01-28T01:18:33;0.00;99.90
10722;DHT22;5412;59.450;18.124;2023-01-28T01:21:00;0.00;99.90
10722;DHT22;5412;59.450;18.124;2023-01-28T01:23:28;0.20;99.90
10722;DHT22;5412;59.450;18.124;2023-01-28T01:25:54;0.20;99.90
10722;DHT22;5412;59.450;18.124;2023-01-28T01:28:20;0.10;99.90
10722;DHT22;5412;59.450;18.124;2023-01-28T01:30:47;0.10;99.90
10722;DHT22;5412;59.450;18.124;2023-01-28T01:33:13;0.30;99.90
10722;DHT22;5412;59.450;18.124;2023-01-28T01:35:39;0.20;99.90
10722;DHT22;5412;59.450;18.124;2023-01-28T01:38:06;0.20;99.90
10722;DHT22;5412;59.450;18.124;2023-01-28T01:40:32;0.00;99.90
10722;DHT22;5412;59.450;18.124;2023-01-28T01:42:57;0.10;99.90
10722;DHT22;5412;59.450;18.124;2023-01-28T01:45:23;0.00;99.90
10722;DHT22;5412;59.450;18.124;2023-01-28T01:52:41;0.10;99.90
10722;DHT22;5412;59.450;18.124;2023-01-28T01:55:11;0.00;99.90
10722;DHT22;5412;59.450;18.124;2023-01-28T01:57:38;0.10;99.90
10722;DHT22;5412;59.450;18.124;2023-01-28T02:00:05;0.10;99.90
10722;DHT22;5412;59.450;18.124;2023-01-28T02:02:38;0.00;99.90
10722;DHT22;5412;59.450;18.124;2023-01-28T02:05:09;0.00;99.90
10722;DHT22;5412;59.450;18.124;2023-01-28T02:07:36;0.00;99.90
10722;DHT22;5412;59.450;18.124;2023-01-28T02:10:02;0.00;99.90
10722;DHT22;5412;59.450;18.124;2023-01-28T02:12:42;0.00;99.90
10722;DHT22;5412;59.450;18.124;2023-01-28T02:15:19;0.10;99.90
10722;DHT22;5412;59.450;18.124;2023-01-28T02:17:46;0.10;99.90
10722;DHT22;5412;59.450;18.124;2023-01-28T02:28:27;0.10;99.90
10722;DHT22;5412;59.450;18.124;2023-01-28T02:31:10;0.20;99.90
10722;DHT22;5412;59.450;18.124;2023-01-28T02:39:02;0.20;99.90
10722;DHT22;5412;59.450;18.124;2023-01-28T02:41:36;0.20;99.90
10722;DHT22;5412;59.450;18.124;2023-01-28T02:44:03;0.10;99.90
10722;DHT22;5412;59.450;18.124;2023-01-28T02:54:44;0.30;99.90
10722;DHT22;5412;59.450;18.124;2023-01-28T02:57:33;0.50;99.90
10722;DHT22;5412;59.450;18.124;2023-01-28T03:00:09;0.30;99.90
10722;DHT22;5412;59.450;18.124;2023-01-28T03:02:52;0.30;99.90
10722;DHT22;5412;59.450;18.124;2023-01-28T03:07:53;0.40;99.90
10722;DHT22;5412;59.450;18.124;2023-01-28T03:10:20;0.40;99.90
10722;DHT22;5412;59.450;18.124;2023-01-28T03:12:53;0.50;99.90
10722;DHT22;5412;59.450;18.124;2023-01-28T03:15:45;0.50;99.90
10722;DHT22;5412;59.450;18.124;2023-01-28T03:18:49;0.50;99.90
10722;DHT22;5412;59.450;18.124;2023-01-28T03:21:41;0.60;99.90
10722;DHT22;5412;59.450;18.124;2023-01-28T03:24:43;0.60;99.90
10722;DHT22;5412;59.450;18.124;2023-01-28T03:30:35;0.50;99.90
10722;DHT22;5412;59.450;18.124;2023-01-28T03:33:20;0.50;99.90
10722;DHT22;5412;59.450;18.124;2023-01-28T03:36:06;0.40;99.90
10722;DHT22;5412;59.450;18.124;2023-01-28T03:38:51;0.40;99.90
10722;DHT22;5412;59.450;18.124;2023-01-28T03:41:22;0.50;99.90
10722;DHT22;5412;59.450;18.124;2023-01-28T03:43:48;0.50;99.90
10722;DHT22;5412;59.450;18.124;2023-01-28T03:46:15;0.60;99.90
10722;DHT22;5412;59.450;18.124;2023-01-28T03:48:41;0.70;99.90
10722;DHT22;5412;59.450;18.124;2023-01-28T03:51:07;0.70;99.90
10722;DHT22;5412;59.450;18.124;2023-01-28T03:53:33;0.80;99.90
10722;DHT22;5412;59.450;18.124;2023-01-28T03:55:58;0.90;99.90
10722;DHT22;5412;59.450;18.124;2023-01-28T03:58:24;0.80;99.90
10722;DHT22;5412;59.450;18.124;2023-01-28T04:01:13;0.80;99.90
10722;DHT22;5412;59.450;18.124;2023-01-28T04:03:38;0.90;99.90
10722;DHT22;5412;59.450;18.124;2023-01-28T04:06:06;0.90;99.90
10722;DHT22;5412;59.450;18.124;2023-01-28T04:08:32;0.90;99.90
10722;DHT22;5412;59.450;18.124;2023-01-28T04:10:58;0.90;99.90
10722;DHT22;5412;59.450;18.124;2023-01-28T04:13:40;0.90;99.90
10722;DHT22;5412;59.450;18.124;2023-01-28T04:16:06;1.10;99.90
10722;DHT22;5412;59.450;18.124;2023-01-28T04:18:33;1.10;99.90
10722;DHT22;5412;59.450;18.124;2023-01-28T04:20:59;1.10;99.90
10722;DHT22;5412;59.450;18.124;2023-01-28T04:23:25;1.20;99.90
10722;DHT22;5412;59.450;18.124;2023-01-28T04:25:51;1.30;99.90
10722;DHT22;5412;59.450;18.124;2023-01-28T04:28:17;1.30;99.90
10722;DHT22;5412;59.450;18.124;2023-01-28T04:30:43;1.30;99.90
10722;DHT22;5412;59.450;18.124;2023-01-28T04:33:09;1.40;99.90
10722;DHT22;5412;59.450;18.124;2023-01-28T04:35:35;1.40;99.90
10722;DHT22;5412;59.450;18.124;2023-01-28T04:38:01;1.30;99.90
10722;DHT22;5412;59.450;18.124;2023-01-28T04:40:27;1.40;99.90
10722;DHT22;5412;59.450;18.124;2023-01-28T04:42:53;1.30;99.90
10722;DHT22;5412;59.450;18.124;2023-01-28T04:45:19;1.40;99.90
10722;DHT22;5412;59.450;18.124;2023-01-28T04:47:46;1.40;99.90
10722;DHT22;5412;59.450;18.124;2023-01-28T04:50:11;1.30;99.90
10722;DHT22;5412;59.450;18.124;2023-01-28T04:52:37;1.30;99.90
10722;DHT22;5412;59.450;18.124;2023-01-28T04:55:03;1.40;99.90
10722;DHT22;5412;59.450;18.124;2023-01-28T04:57:29;1.50;99.90
10722;DHT22;5412;59.450;18.124;2023-01-28T04:59:55;2.00;99.90
10722;DHT22;5412;59.450;18.124;2023-01-28T05:02:21;1.60;99.90
10722;DHT22;5412;59.450;18.124;2023-01-28T05:04:47;1.50;99.90
10722;DHT22;5412;59.450;18.124;2023-01-28T05:07:12;1.60;99.90
10722;DHT22;5412;59.450;18.124;2023-01-28T05:09:38;1.80;99.90
10722;DHT22;5412;59.450;18.124;2023-01-28T05:12:04;1.80;99.90
10722;DHT22;5412;59.450;18.124;2023-01-28T05:14:30;1.70;99.90
10722;DHT22;5412;59.450;18.124;2023-01-28T05:16:55;1.80;99.90
10722;DHT22;5412;59.450;18.124;2023-01-28T05:19:21;1.90;99.90
10722;DHT22;5412;59.450;18.124;2023-01-28T05:21:47;1.80;99.90
10722;DHT22;5412;59.450;18.124;2023-01-28T05:24:12;1.80;99.90
10722;DHT22;5412;59.450;18.124;2023-01-28T05:26:38;1.80;99.90
10722;DHT22;5412;59.450;18.124;2023-01-28T05:29:04;1.90;99.90
10722;DHT22;5412;59.450;18.124;2023-01-28T05:31:30;2.00;99.90
10722;DHT22;5412;59.450;18.124;2023-01-28T05:33:56;2.10;99.90
10722;DHT22;5412;59.450;18.124;2023-01-28T05:36:22;2.00;99.90
10722;DHT22;5412;59.450;18.124;2023-01-28T05:38:48;1.90;99.90
10722;DHT22;5412;59.450;18.124;2023-01-28T05:41:13;2.00;99.90
10722;DHT22;5412;59.450;18.124;2023-01-28T05:43:39;2.00;99.90
10722;DHT22;5412;59.450;18.124;2023-01-28T05:46:05;2.10;99.90
10722;DHT22;5412;59.450;18.124;2023-01-28T05:48:31;2.20;99.90
10722;DHT22;5412;59.450;18.124;2023-01-28T05:50:56;2.20;99.90
10722;DHT22;5412;59.450;18.124;2023-01-28T05:53:22;2.20;99.90
10722;DHT22;5412;59.450;18.124;2023-01-28T05:55:49;2.00;99.90
10722;DHT22;5412;59.450;18.124;2023-01-28T05:58:15;2.00;99.90
10722;DHT22;5412;59.450;18.124;2023-01-28T06:00:41;2.00;99.90
10722;DHT22;5412;59.450;18.124;2023-01-28T06:03:07;2.10;99.90
10722;DHT22;5412;59.450;18.124;2023-01-28T06:05:33;2.00;99.90
10722;DHT22;5412;59.450;18.124;2023-01-28T06:07:59;2.00;99.90
10722;DHT22;5412;59.450;18.124;2023-01-28T06:10:25;1.90;99.90
10722;DHT22;5412;59.450;18.124;2023-01-28T06:12:50;1.80;99.90
10722;DHT22;5412;59.450;18.124;2023-01-28T06:15:16;1.80;99.90
10722;DHT22;5412;59.450;18.124;2023-01-28T06:17:42;1.80;99.90
10722;DHT22;5412;59.450;18.124;2023-01-28T06:20:08;1.90;99.90
10722;DHT22;5412;59.450;18.124;2023-01-28T06:22:34;1.80;99.90
10722;DHT22;5412;59.450;18.124;2023-01-28T06:25:00;1.90;99.90
10722;DHT22;5412;59.450;18.124;2023-01-28T06:27:25;1.90;99.90
10722;DHT22;5412;59.450;18.124;2023-01-28T06:29:52;1.80;99.90
10722;DHT22;5412;59.450;18.124;2023-01-28T06:32:18;1.80;99.90
10722;DHT22;5412;59.450;18.124;2023-01-28T06:34:43;1.80;99.90
10722;DHT22;5412;59.450;18.124;2023-01-28T06:37:12;1.80;99.90
10722;DHT22;5412;59.450;18.124;2023-01-28T06:39:38;1.90;99.90
10722;DHT22;5412;59.450;18.124;2023-01-28T06:42:04;1.80;99.90
10722;DHT22;5412;59.450;18.124;2023-01-28T06:44:29;1.70;99.90
10722;DHT22;5412;59.450;18.124;2023-01-28T06:46:55;1.70;99.90
10722;DHT22;5412;59.450;18.124;2023-01-28T06:49:21;1.80;99.90
10722;DHT22;5412;59.450;18.124;2023-01-28T06:51:47;1.60;99.90
10722;DHT22;5412;59.450;18.124;2023-01-28T06:54:13;1.70;99.90
10722;DHT22;5412;59.450;18.124;2023-01-28T06:56:39;1.80;99.90
10722;DHT22;5412;59.450;18.124;2023-01-28T06:59:04;1.80;99.90
10722;DHT22;5412;59.450;18.124;2023-01-28T07:01:30;1.70;99.90
10722;DHT22;5412;59.450;18.124;2023-01-28T07:03:56;1.60;99.90
10722;DHT22;5412;59.450;18.124;2023-01-28T07:06:22;1.70;99.90
10722;DHT22;5412;59.450;18.124;2023-01-28T07:08:48;1.60;99.90
10722;DHT22;5412;59.450;18.124;2023-01-28T07:11:15;1.70;99.90
10722;DHT22;5412;59.450;18.124;2023-01-28T07:13:41;1.60;99.90
10722;DHT22;5412;59.450;18.124;2023-01-28T07:16:08;1.70;99.90
10722;DHT22;5412;59.450;18.124;2023-01-28T07:18:34;1.70;99.90
10722;DHT22;5412;59.450;18.124;2023-01-28T07:21:00;1.60;99.90
10722;DHT22;5412;59.450;18.124;2023-01-28T07:23:25;1.50;99.90
10722;DHT22;5412;59.450;18.124;2023-01-28T07:25:51;1.50;99.90
10722;DHT22;5412;59.450;18.124;2023-01-28T07:28:17;1.60;99.90
10722;DHT22;5412;59.450;18.124;2023-01-28T07:30:52;1.70;99.90
10722;DHT22;5412;59.450;18.124;2023-01-28T07:33:18;1.70;99.90
10722;DHT22;5412;59.450;18.124;2023-01-28T07:35:44;1.70;99.90
10722;DHT22;5412;59.450;18.124;2023-01-28T07:38:11;1.80;99.90
10722;DHT22;5412;59.450;18.124;2023-01-28T07:40:37;1.80;99.90
10722;DHT22;5412;59.450;18.124;2023-01-28T07:43:03;1.70;99.90
10722;DHT22;5412;59.450;18.124;2023-01-28T07:45:29;1.50;99.90
10722;DHT22;5412;59.450;18.124;2023-01-28T07:48:02;1.50;99.90
10722;DHT22;5412;59.450;18.124;2023-01-28T07:50:33;1.60;99.90
10722;DHT22;5412;59.450;18.124;2023-01-28T07:53:02;1.60;99.90
10722;DHT22;5412;59.450;18.124;2023-01-28T07:55:28;1.50;99.90
10722;DHT22;5412;59.450;18.124;2023-01-28T07:57:58;1.50;99.90
10722;DHT22;5412;59.450;18.124;2023-01-28T08:00:27;1.50;99.90
10722;DHT22;5412;59.450;18.124;2023-01-28T08:03:00;1.50;99.90
10722;DHT22;5412;59.450;18.124;2023-01-28T08:05:37;1.50;99.90
10722;DHT22;5412;59.450;18.124;2023-01-28T08:08:06;1.60;99.90
10722;DHT22;5412;59.450;18.124;2023-01-28T08:10:32;1.70;99.90
10722;DHT22;5412;59.450;18.124;2023-01-28T08:12:58;1.70;99.90
10722;DHT22;5412;59.450;18.124;2023-01-28T08:15:24;1.80;99.90
10722;DHT22;5412;59.450;18.124;2023-01-28T08:17:53;1.80;99.90
10722;DHT22;5412;59.450;18.124;2023-01-28T08:20:20;1.70;99.90
10722;DHT22;5412;59.450;18.124;2023-01-28T08:22:46;1.90;99.90
10722;DHT22;5412;59.450;18.124;2023-01-28T08:25:12;1.70;99.90
10722;DHT22;5412;59.450;18.124;2023-01-28T08:27:38;1.70;99.90
10722;DHT22;5412;59.450;18.124;2023-01-28T08:30:04;1.70;99.90
10722;DHT22;5412;59.450;18.124;2023-01-28T08:32:31;1.70;99.90
10722;DHT22;5412;59.450;18.124;2023-01-28T08:34:57;1.70;99.90
10722;DHT22;5412;59.450;18.124;2023-01-28T08:37:23;1.80;99.90
10722;DHT22;5412;59.450;18.124;2023-01-28T08:39:48;2.00;99.90
10722;DHT22;5412;59.450;18.124;2023-01-28T08:42:15;1.90;99.90
10722;DHT22;5412;59.450;18.124;2023-01-28T08:44:41;1.90;99.90
10722;DHT22;5412;59.450;18.124;2023-01-28T08:47:07;1.80;99.90
10722;DHT22;5412;59.450;18.124;2023-01-28T08:49:33;1.80;99.90
10722;DHT22;5412;59.450;18.124;2023-01-28T08:51:58;1.90;99.90
10722;DHT22;5412;59.450;18.124;2023-01-28T08:54:24;1.90;99.90
10722;DHT22;5412;59.450;18.124;2023-01-28T08:56:50;1.90;99.90
10722;DHT22;5412;59.450;18.124;2023-01-28T08:59:16;2.00;99.90
10722;DHT22;5412;59.450;18.124;2023-01-28T09:01:42;2.10;99.90
10722;DHT22;5412;59.450;18.124;2023-01-28T09:04:08;2.10;99.90
10722;DHT22;5412;59.450;18.124;2023-01-28T09:06:33;2.10;99.90
10722;DHT22;5412;59.450;18.124;2023-01-28T09:09:00;2.30;99.90
10722;DHT22;5412;59.450;18.124;2023-01-28T09:11:27;2.20;99.90
10722;DHT22;5412;59.450;18.124;2023-01-28T09:13:53;2.30;99.90
10722;DHT22;5412;59.450;18.124;2023-01-28T09:16:19;2.30;99.90
10722;DHT22;5412;59.450;18.124;2023-01-28T09:18:45;2.20;99.90
10722;DHT22;5412;59.450;18.124;2023-01-28T09:21:12;2.20;99.90
10722;DHT22;5412;59.450;18.124;2023-01-28T09:23:39;2.30;99.90
10722;DHT22;5412;59.450;18.124;2023-01-28T09:26:05;2.30;99.90
10722;DHT22;5412;59.450;18.124;2023-01-28T09:28:32;2.40;99.90
10722;DHT22;5412;59.450;18.124;2023-01-28T09:31:06;2.30;99.90
10722;DHT22;5412;59.450;18.124;2023-01-28T09:33:33;2.10;99.90
10722;DHT22;5412;59.450;18.124;2023-01-28T09:36:00;2.20;99.90
10722;DHT22;5412;59.450;18.124;2023-01-28T09:38:26;2.30;99.90
10722;DHT22;5412;59.450;18.124;2023-01-28T09:40:52;2.40;99.90
10722;DHT22;5412;59.450;18.124;2023-01-28T09:45:57;2.50;99.90
10722;DHT22;5412;59.450;18.124;2023-01-28T09:48:31;2.50;99.90
10722;DHT22;5412;59.450;18.124;2023-01-28T09:51:00;2.30;99.90
10722;DHT22;5412;59.450;18.124;2023-01-28T09:53:32;2.50;99.90
10722;DHT22;5412;59.450;18.124;2023-01-28T09:58:28;2.70;99.90
10722;DHT22;5412;59.450;18.124;2023-01-28T10:17:35;3.00;99.90
10722;DHT22;5412;59.450;18.124;2023-01-28T10:20:22;2.80;99.90
10722;DHT22;5412;59.450;18.124;2023-01-28T10:25:28;2.90;99.90
10722;DHT22;5412;59.450;18.124;2023-01-28T10:27:54;2.80;99.90
10722;DHT22;5412;59.450;18.124;2023-01-28T10:30:25;2.80;99.90
10722;DHT22;5412;59.450;18.124;2023-01-28T10:35:51;2.90;99.90
10722;DHT22;5412;59.450;18.124;2023-01-28T10:38:20;3.00;99.90
10722;DHT22;5412;59.450;18.124;2023-01-28T10:40:47;3.00;99.90
10722;DHT22;5412;59.450;18.124;2023-01-28T10:43:21;3.00;99.90
10722;DHT22;5412;59.450;18.124;2023-01-28T10:48:33;3.20;99.90
10722;DHT22;5412;59.450;18.124;2023-01-28T10:51:02;3.30;99.90
10722;DHT22;5412;59.450;18.124;2023-01-28T10:56:00;3.60;99.90
10722;DHT22;5412;59.450;18.124;2023-01-28T10:58:28;3.50;99.90
10722;DHT22;5412;59.450;18.124;2023-01-28T11:00:56;3.40;99.90
10722;DHT22;5412;59.450;18.124;2023-01-28T11:03:24;3.40;99.90
10722;DHT22;5412;59.450;18.124;2023-01-28T11:05:56;3.60;99.90
10722;DHT22;5412;59.450;18.124;2023-01-28T11:08:25;3.60;99.90
10722;DHT22;5412;59.450;18.124;2023-01-28T11:10:52;3.70;99.90
10722;DHT22;5412;59.450;18.124;2023-01-28T11:13:22;3.70;99.90
10722;DHT22;5412;59.450;18.124;2023-01-28T11:16:02;3.70;99.90
10722;DHT22;5412;59.450;18.124;2023-01-28T11:18:45;3.90;99.90
10722;DHT22;5412;59.450;18.124;2023-01-28T11:21:20;4.20;99.90
10722;DHT22;5412;59.450;18.124;2023-01-28T11:24:13;4.10;99.90
10722;DHT22;5412;59.450;18.124;2023-01-28T11:26:43;4.00;99.90
10722;DHT22;5412;59.450;18.124;2023-01-28T11:29:23;3.90;99.90
10722;DHT22;5412;59.450;18.124;2023-01-28T11:31:50;4.00;99.90
10722;DHT22;5412;59.450;18.124;2023-01-28T11:34:17;4.00;99.90
10722;DHT22;5412;59.450;18.124;2023-01-28T11:36:52;4.00;99.90
10722;DHT22;5412;59.450;18.124;2023-01-28T11:39:24;3.90;99.90
10722;DHT22;5412;59.450;18.124;2023-01-28T11:41:53;4.00;99.90
10722;DHT22;5412;59.450;18.124;2023-01-28T11:44:26;4.00;99.90
10722;DHT22;5412;59.450;18.124;2023-01-28T11:56:23;4.30;99.90
10722;DHT22;5412;59.450;18.124;2023-01-28T12:04:15;4.10;99.90
10722;DHT22;5412;59.450;18.124;2023-01-28T12:12:48;3.90;99.90
10722;DHT22;5412;59.450;18.124;2023-01-28T12:21:06;4.10;99.90
10722;DHT22;5412;59.450;18.124;2023-01-28T12:43:09;4.30;99.90
10722;DHT22;5412;59.450;18.124;2023-01-28T12:45:39;4.20;99.90
10722;DHT22;5412;59.450;18.124;2023-01-28T12:48:10;4.20;99.90
10722;DHT22;5412;59.450;18.124;2023-01-28T12:56:26;4.30;99.90
10722;DHT22;5412;59.450;18.124;2023-01-28T12:59:01;4.30;99.90
10722;DHT22;5412;59.450;18.124;2023-01-28T13:01:40;4.30;99.90
10722;DHT22;5412;59.450;18.124;2023-01-28T13:07:05;4.40;99.90
10722;DHT22;5412;59.450;18.124;2023-01-28T13:09:35;4.40;99.90
10722;DHT22;5412;59.450;18.124;2023-01-28T13:12:02;4.40;99.90
10722;DHT22;5412;59.450;18.124;2023-01-28T13:14:31;4.40;99.90
10722;DHT22;5412;59.450;18.124;2023-01-28T13:17:31;4.40;99.90
10722;DHT22;5412;59.450;18.124;2023-01-28T13:19:57;4.50;99.90
10722;DHT22;5412;59.450;18.124;2023-01-28T13:22:34;4.50;99.90
10722;DHT22;5412;59.450;18.124;2023-01-28T13:28:03;4.50;99.90
10722;DHT22;5412;59.450;18.124;2023-01-28T13:30:47;4.60;99.90
10722;DHT22;5412;59.450;18.124;2023-01-28T13:33:31;4.50;99.90
10722;DHT22;5412;59.450;18.124;2023-01-28T13:36:02;4.40;99.90
10722;DHT22;5412;59.450;18.124;2023-01-28T13:38:30;4.30;99.90
10722;DHT22;5412;59.450;18.124;2023-01-28T13:41:00;4.30;99.90
10722;DHT22;5412;59.450;18.124;2023-01-28T13:46:09;4.30;99.90
10722;DHT22;5412;59.450;18.124;2023-01-28T13:48:44;4.50;99.90
10722;DHT22;5412;59.450;18.124;2023-01-28T13:51:32;4.40;99.90
10722;DHT22;5412;59.450;18.124;2023-01-28T14:16:07;4.30;99.90
10722;DHT22;5412;59.450;18.124;2023-01-28T14:18:41;4.20;99.90
10722;DHT22;5412;59.450;18.124;2023-01-28T14:21:13;4.20;99.90
10722;DHT22;5412;59.450;18.124;2023-01-28T14:23:50;4.40;99.90
10722;DHT22;5412;59.450;18.124;2023-01-28T14:31:37;4.30;99.90
10722;DHT22;5412;59.450;18.124;2023-01-28T14:36:45;4.20;99.90
10722;DHT22;5412;59.450;18.124;2023-01-28T14:39:26;4.20;99.90
10722;DHT22;5412;59.450;18.124;2023-01-28T14:41:54;4.20;99.90
10722;DHT22;5412;59.450;18.124;2023-01-28T14:44:35;4.20;99.90
10722;DHT22;5412;59.450;18.124;2023-01-28T14:47:27;4.10;99.90
10722;DHT22;5412;59.450;18.124;2023-01-28T14:55:48;4.10;99.90
10722;DHT22;5412;59.450;18.124;2023-01-28T14:58:25;4.10;99.90
10722;DHT22;5412;59.450;18.124;2023-01-28T15:00:57;3.90;99.90
10722;DHT22;5412;59.450;18.124;2023-01-28T15:03:24;3.90;99.90
10722;DHT22;5412;59.450;18.124;2023-01-28T15:06:13;3.90;99.90
10722;DHT22;5412;59.450;18.124;2023-01-28T15:08:40;3.80;99.90
10722;DHT22;5412;59.450;18.124;2023-01-28T15:11:08;3.80;99.90
10722;DHT22;5412;59.450;18.124;2023-01-28T15:13:39;3.80;99.90
10722;DHT22;5412;59.450;18.124;2023-01-28T15:16:06;3.70;99.90
10722;DHT22;5412;59.450;18.124;2023-01-28T15:18:41;3.70;99.90
10722;DHT22;5412;59.450;18.124;2023-01-28T15:21:07;3.70;99.90
10722;DHT22;5412;59.450;18.124;2023-01-28T15:23:35;3.80;99.90
10722;DHT22;5412;59.450;18.124;2023-01-28T15:26:14;3.80;99.90
10722;DHT22;5412;59.450;18.124;2023-01-28T15:28:43;3.80;99.90
10722;DHT22;5412;59.450;18.124;2023-01-28T15:31:32;3.90;99.90
10722;DHT22;5412;59.450;18.124;2023-01-28T15:34:13;3.80;99.90
10722;DHT22;5412;59.450;18.124;2023-01-28T15:36:39;3.70;99.90
10722;DHT22;5412;59.450;18.124;2023-01-28T15:39:19;3.70;99.90
10722;DHT22;5412;59.450;18.124;2023-01-28T15:42:19;3.60;99.90
10722;DHT22;5412;59.450;18.124;2023-01-28T15:44:46;3.50;99.90
10722;DHT22;5412;59.450;18.124;2023-01-28T15:49:49;3.50;99.90
10722;DHT22;5412;59.450;18.124;2023-01-28T15:52:16;3.50;99.90
10722;DHT22;5412;59.450;18.124;2023-01-28T15:54:44;3.40;99.90
10722;DHT22;5412;59.450;18.124;2023-01-28T15:57:26;3.50;99.90
10722;DHT22;5412;59.450;18.124;2023-01-28T16:02:44;3.50;99.90
10722;DHT22;5412;59.450;18.124;2023-01-28T16:07:51;3.50;99.90
10722;DHT22;5412;59.450;18.124;2023-01-28T16:10:23;3.60;99.90
10722;DHT22;5412;59.450;18.124;2023-01-28T16:13:05;3.60;99.90
10722;DHT22;5412;59.450;18.124;2023-01-28T16:15:37;3.50;99.90
10722;DHT22;5412;59.450;18.124;2023-01-28T16:18:04;3.40;99.90
10722;DHT22;5412;59.450;18.124;2023-01-28T16:20:31;3.20;99.90
10722;DHT22;5412;59.450;18.124;2023-01-28T16:22:59;3.30;99.90
10722;DHT22;5412;59.450;18.124;2023-01-28T16:25:32;3.40;99.90
10722;DHT22;5412;59.450;18.124;2023-01-28T16:27:59;3.30;99.90
10722;DHT22;5412;59.450;18.124;2023-01-28T16:30:26;3.40;99.90
10722;DHT22;5412;59.450;18.124;2023-01-28T16:32:54;3.50;99.90
10722;DHT22;5412;59.450;18.124;2023-01-28T16:35:25;3.30;99.90
10722;DHT22;5412;59.450;18.124;2023-01-28T16:37:51;3.40;99.90
10722;DHT22;5412;59.450;18.124;2023-01-28T16:40:19;3.30;99.90
10722;DHT22;5412;59.450;18.124;2023-01-28T16:42:45;3.20;99.90
10722;DHT22;5412;59.450;18.124;2023-01-28T16:45:18;3.20;99.90
10722;DHT22;5412;59.450;18.124;2023-01-28T16:47:44;3.30;99.90
10722;DHT22;5412;59.450;18.124;2023-01-28T16:50:11;3.40;99.90
10722;DHT22;5412;59.450;18.124;2023-01-28T16:52:37;3.30;99.90
10722;DHT22;5412;59.450;18.124;2023-01-28T16:55:03;3.40;99.90
10722;DHT22;5412;59.450;18.124;2023-01-28T16:57:32;3.40;99.90
10722;DHT22;5412;59.450;18.124;2023-01-28T16:59:59;3.40;99.90
10722;DHT22;5412;59.450;18.124;2023-01-28T17:02:25;3.30;99.90
10722;DHT22;5412;59.450;18.124;2023-01-28T17:04:51;3.30;99.90
10722;DHT22;5412;59.450;18.124;2023-01-28T17:07:16;3.20;99.90
10722;DHT22;5412;59.450;18.124;2023-01-28T17:09:42;3.20;99.90
10722;DHT22;5412;59.450;18.124;2023-01-28T17:12:08;3.10;99.90
10722;DHT22;5412;59.450;18.124;2023-01-28T17:14:34;3.00;99.90
10722;DHT22;5412;59.450;18.124;2023-01-28T17:16:59;3.10;99.90
10722;DHT22;5412;59.450;18.124;2023-01-28T17:19:25;3.10;99.90
10722;DHT22;5412;59.450;18.124;2023-01-28T17:21:51;3.00;99.90
10722;DHT22;5412;59.450;18.124;2023-01-28T17:24:16;3.00;99.90
10722;DHT22;5412;59.450;18.124;2023-01-28T17:26:42;3.00;99.90
10722;DHT22;5412;59.450;18.124;2023-01-28T17:29:08;3.10;99.90
10722;DHT22;5412;59.450;18.124;2023-01-28T17:31:35;3.20;99.90
10722;DHT22;5412;59.450;18.124;2023-01-28T17:34:01;3.30;99.90
10722;DHT22;5412;59.450;18.124;2023-01-28T17:36:27;3.30;99.90
10722;DHT22;5412;59.450;18.124;2023-01-28T17:38:53;3.20;99.90
10722;DHT22;5412;59.450;18.124;2023-01-28T17:41:20;3.20;99.90
10722;DHT22;5412;59.450;18.124;2023-01-28T17:43:53;3.20;99.90
10722;DHT22;5412;59.450;18.124;2023-01-28T17:46:19;3.00;99.90
10722;DHT22;5412;59.450;18.124;2023-01-28T17:48:45;3.00;99.90
10722;DHT22;5412;59.450;18.124;2023-01-28T17:51:12;2.90;99.90
10722;DHT22;5412;59.450;18.124;2023-01-28T17:53:38;2.80;99.90
10722;DHT22;5412;59.450;18.124;2023-01-28T17:56:04;2.90;99.90
10722;DHT22;5412;59.450;18.124;2023-01-28T17:58:31;2.90;99.90
10722;DHT22;5412;59.450;18.124;2023-01-28T18:00:56;2.80;99.90
10722;DHT22;5412;59.450;18.124;2023-01-28T18:03:22;2.70;99.90
10722;DHT22;5412;59.450;18.124;2023-01-28T18:05:58;2.70;99.90
10722;DHT22;5412;59.450;18.124;2023-01-28T18:08:24;2.70;99.90
10722;DHT22;5412;59.450;18.124;2023-01-28T18:10:50;2.60;99.90
10722;DHT22;5412;59.450;18.124;2023-01-28T18:13:16;2.70;99.90
10722;DHT22;5412;59.450;18.124;2023-01-28T18:15:42;2.60;99.90
10722;DHT22;5412;59.450;18.124;2023-01-28T18:18:08;2.50;99.90
10722;DHT22;5412;59.450;18.124;2023-01-28T18:20:33;2.50;99.90
10722;DHT22;5412;59.450;18.124;2023-01-28T18:23:00;2.50;99.90
10722;DHT22;5412;59.450;18.124;2023-01-28T18:25:25;2.50;99.90
10722;DHT22;5412;59.450;18.124;2023-01-28T18:27:51;2.50;99.90
10722;DHT22;5412;59.450;18.124;2023-01-28T18:30:17;2.50;99.90
10722;DHT22;5412;59.450;18.124;2023-01-28T18:32:43;2.50;99.90
10722;DHT22;5412;59.450;18.124;2023-01-28T18:35:09;2.50;99.90
10722;DHT22;5412;59.450;18.124;2023-01-28T18:37:36;2.50;99.90
10722;DHT22;5412;59.450;18.124;2023-01-28T18:40:02;2.60;99.90
10722;DHT22;5412;59.450;18.124;2023-01-28T18:42:29;2.60;99.90
10722;DHT22;5412;59.450;18.124;2023-01-28T18:44:56;2.60;99.90